Time;durP1;ratioP1;P1;durP2;ratioP2;P2;SDS_P1;SDS_P2;PMS_P1;PMS_P2;Temp;Humidity;BMP_temperature;BMP_pressure;BME280_temperature;BME280_humidity;BME280_pressure;Samples;Min_cycle;Max_cycle;Signal;HPM_P1;HPM_P2
2020/12/23 00:02:33;;;;;;;0.77;0.40;;;;;;;;;;10363561;28;20268;-71
2020/12/23 00:07:34;;;;;;;0.50;0.50;;;;;;;;;;10364560;28;20205;-72
2020/12/23 00:12:36;;;;;;;0.60;0.40;;;;;;;;;;10363907;28;20222;-72
2020/12/23 00:17:38;;;;;;;0.57;0.40;;;;;;;;;;10364623;28;20297;-72
2020/12/23 00:22:40;;;;;;;0.50;0.40;;;;;;;;;;10363325;28;20213;-72
2020/12/23 00:27:42;;;;;;;0.70;0.60;;;;;;;;;;10364142;28;20183;-71
2020/12/23 00:32:44;;;;;;;0.70;0.50;;;;;;;;;;10364574;28;20756;-72
2020/12/23 00:37:46;;;;;;;0.90;0.50;;;;;;;;;;10359149;28;20199;-73
2020/12/23 00:42:47;;;;;;;1.10;0.57;;;;;;;;;;10361611;28;20526;-73
2020/12/23 00:47:50;;;;;;;2.10;1.10;;;;;;;;;;10363458;28;20314;-71
2020/12/23 00:52:51;;;;;;;15.63;7.33;;;;;;;;;;10360362;28;20748;-71
2020/12/23 00:57:53;;;;;;;1.20;0.90;;;;;;;;;;10360471;28;20214;-70
2020/12/23 01:02:55;;;;;;;0.97;0.70;;;;;;;;;;10363227;28;20300;-71
2020/12/23 01:07:56;;;;;;;1.23;0.80;;;;;;;;;;10361525;28;20277;-72
2020/12/23 01:12:58;;;;;;;1.33;0.77;;;;;;;;;;10354647;28;20268;-71
2020/12/23 01:18:00;;;;;;;0.67;0.60;;;;;;;;;;10366497;28;20238;-72
2020/12/23 01:23:02;;;;;;;1.10;0.50;;;;;;;;;;10366804;28;20214;-71
2020/12/23 01:28:03;;;;;;;1.77;0.50;;;;;;;;;;10370755;28;20186;-72
2020/12/23 01:33:06;;;;;;;0.80;0.50;;;;;;;;;;10363220;28;20586;-73
2020/12/23 01:38:07;;;;;;;0.53;0.30;;;;;;;;;;10368335;28;20486;-69
2020/12/23 01:43:09;;;;;;;0.60;0.30;;;;;;;;;;10370617;28;20744;-70
2020/12/23 01:48:17;;;;;;;0.80;0.50;;;;;;;;;;10365774;28;20191;-72
2020/12/23 01:53:18;;;;;;;0.77;0.47;;;;;;;;;;10361176;28;20349;-71
2020/12/23 01:58:20;;;;;;;1.27;0.50;;;;;;;;;;10366925;28;20733;-71
2020/12/23 02:03:22;;;;;;;0.30;0.30;;;;;;;;;;10369170;28;20578;-70
2020/12/23 02:08:24;;;;;;;1.60;0.50;;;;;;;;;;10362439;28;20226;-73
2020/12/23 02:13:35;;;;;;;0.63;0.43;;;;;;;;;;10365578;28;20214;-72
2020/12/23 02:18:37;;;;;;;1.50;0.90;;;;;;;;;;10368935;28;20202;-73
2020/12/23 02:23:57;;;;;;;0.60;0.60;;;;;;;;;;10362675;28;20229;-72
2020/12/23 02:28:58;;;;;;;1.70;0.60;;;;;;;;;;10368018;28;20236;-70
2020/12/23 02:34:00;;;;;;;0.50;0.40;;;;;;;;;;10364133;28;20293;-70
2020/12/23 02:39:03;;;;;;;0.40;0.40;;;;;;;;;;10367056;28;20213;-70
2020/12/23 02:44:04;;;;;;;0.60;0.50;;;;;;;;;;10368684;28;20760;-73
2020/12/23 02:49:06;;;;;;;0.40;0.40;;;;;;;;;;10364029;28;20223;-70
2020/12/23 02:54:09;;;;;;;0.37;0.37;;;;;;;;;;10364208;28;20210;-73
2020/12/23 02:59:10;;;;;;;0.67;0.40;;;;;;;;;;10363542;28;20652;-72
2020/12/23 03:04:12;;;;;;;0.50;0.50;;;;;;;;;;10362660;28;20570;-71
2020/12/23 03:09:15;;;;;;;1.10;0.43;;;;;;;;;;10366722;28;20210;-73
2020/12/23 03:14:17;;;;;;;0.60;0.40;;;;;;;;;;10357946;28;20214;-69
2020/12/23 03:19:19;;;;;;;0.20;0.20;;;;;;;;;;10366809;28;20225;-70
2020/12/23 03:24:21;;;;;;;0.40;0.40;;;;;;;;;;10352834;28;21734;-72
2020/12/23 03:29:22;;;;;;;0.30;0.30;;;;;;;;;;10365527;28;20228;-71
2020/12/23 03:34:24;;;;;;;0.40;0.40;;;;;;;;;;10360060;28;20293;-73
2020/12/23 03:39:26;;;;;;;0.67;0.50;;;;;;;;;;10362067;28;20237;-72
2020/12/23 03:44:28;;;;;;;0.70;0.40;;;;;;;;;;10366052;28;20321;-73
2020/12/23 03:49:29;;;;;;;0.70;0.50;;;;;;;;;;10358494;28;20225;-72
2020/12/23 03:54:32;;;;;;;1.33;0.50;;;;;;;;;;10363814;28;20210;-71
2020/12/23 03:59:33;;;;;;;0.57;0.40;;;;;;;;;;10358236;28;20560;-70
2020/12/23 04:04:35;;;;;;;0.43;0.30;;;;;;;;;;10364129;28;20248;-71
2020/12/23 04:09:37;;;;;;;1.03;0.43;;;;;;;;;;10360924;28;20534;-75
2020/12/23 04:14:39;;;;;;;0.47;0.40;;;;;;;;;;10361661;28;20202;-72
2020/12/23 04:19:40;;;;;;;0.57;0.47;;;;;;;;;;10363503;28;20256;-71
2020/12/23 04:24:43;;;;;;;1.27;0.40;;;;;;;;;;10360901;28;20340;-69
2020/12/23 04:29:44;;;;;;;1.13;0.53;;;;;;;;;;10364310;28;20285;-73
2020/12/23 04:34:47;;;;;;;1.90;0.50;;;;;;;;;;10360732;28;20333;-72
2020/12/23 04:39:49;;;;;;;1.07;0.50;;;;;;;;;;10359903;28;20307;-70
2020/12/23 04:44:52;;;;;;;0.50;0.50;;;;;;;;;;10359505;28;20211;-70
2020/12/23 04:49:54;;;;;;;1.37;0.80;;;;;;;;;;10357959;28;20361;-71
2020/12/23 04:54:57;;;;;;;0.67;0.40;;;;;;;;;;10359660;28;20260;-70
2020/12/23 04:59:59;;;;;;;0.30;0.30;;;;;;;;;;10360397;28;20194;-68
2020/12/23 05:05:01;;;;;;;0.60;0.50;;;;;;;;;;10347739;28;20203;-69
2020/12/23 05:10:06;;;;;;;0.60;0.50;;;;;;;;;;10363162;28;20186;-70
2020/12/23 05:15:08;;;;;;;22.40;9.43;;;;;;;;;;10359611;28;20218;-70
2020/12/23 05:20:10;;;;;;;22.30;10.23;;;;;;;;;;10357948;28;20218;-71
2020/12/23 05:25:13;;;;;;;1.43;1.00;;;;;;;;;;10358070;28;20210;-70
2020/12/23 05:30:15;;;;;;;0.67;0.67;;;;;;;;;;10356216;28;20260;-69
2020/12/23 05:35:17;;;;;;;0.60;0.50;;;;;;;;;;10359749;28;20268;-71
2020/12/23 05:40:19;;;;;;;0.70;0.50;;;;;;;;;;10360040;28;20268;-70
2020/12/23 05:45:22;;;;;;;2.73;1.80;;;;;;;;;;10362126;28;20226;-71
2020/12/23 05:50:24;;;;;;;1.07;0.40;;;;;;;;;;10355971;28;20245;-69
2020/12/23 05:55:26;;;;;;;0.40;0.40;;;;;;;;;;10358600;28;20226;-70
2020/12/23 06:00:28;;;;;;;1.97;0.90;;;;;;;;;;10356738;28;20311;-70
2020/12/23 06:05:33;;;;;;;1.17;0.57;;;;;;;;;;10363460;28;20211;-72
2020/12/23 06:10:36;;;;;;;0.70;0.50;;;;;;;;;;10367030;28;20321;-71
2020/12/23 06:15:40;;;;;;;0.97;0.43;;;;;;;;;;10366110;28;20232;-71
2020/12/23 06:20:44;;;;;;;0.53;0.50;;;;;;;;;;10367742;28;20195;-72
2020/12/23 06:25:46;;;;;;;0.87;0.43;;;;;;;;;;10365470;28;20748;-70
2020/12/23 06:30:49;;;;;;;0.33;0.33;;;;;;;;;;10365510;28;20631;-71
2020/12/23 06:35:51;;;;;;;0.53;0.50;;;;;;;;;;10362599;28;20210;-71
2020/12/23 06:41:00;;;;;;;0.80;0.57;;;;;;;;;;10367219;28;20221;-71
2020/12/23 06:46:01;;;;;;;0.80;0.53;;;;;;;;;;10366161;28;20221;-72
2020/12/23 06:51:03;;;;;;;1.30;0.63;;;;;;;;;;10358289;28;20199;-70
2020/12/23 06:56:05;;;;;;;1.40;0.67;;;;;;;;;;10363310;28;20737;-71
2020/12/23 07:01:17;;;;;;;1.33;0.57;;;;;;;;;;10361962;28;20209;-71
2020/12/23 07:06:28;;;;;;;3.00;0.57;;;;;;;;;;10357384;28;20245;-70
2020/12/23 07:11:32;;;;;;;1.60;0.70;;;;;;;;;;10364384;28;20289;-70
2020/12/23 07:16:41;;;;;;;1.83;0.80;;;;;;;;;;10364746;28;20210;-69
2020/12/23 07:21:47;;;;;;;1.43;0.60;;;;;;;;;;10363475;28;20202;-69
2020/12/23 07:26:50;;;;;;;2.33;1.20;;;;;;;;;;10365018;28;20182;-70
2020/12/23 07:31:52;;;;;;;1.20;0.80;;;;;;;;;;10363727;28;20211;-69
2020/12/23 07:36:57;;;;;;;2.13;1.07;;;;;;;;;;10361994;28;20213;-68
2020/12/23 07:42:00;;;;;;;1.27;0.80;;;;;;;;;;10363713;28;20298;-71
2020/12/23 07:47:02;;;;;;;2.50;1.00;;;;;;;;;;10353811;28;20191;-69
2020/12/23 07:52:04;;;;;;;1.57;1.10;;;;;;;;;;10365167;28;20293;-72
2020/12/23 07:57:06;;;;;;;2.40;1.00;;;;;;;;;;10361910;28;20292;-71
2020/12/23 08:02:09;;;;;;;2.23;1.03;;;;;;;;;;10363494;28;20214;-71
2020/12/23 08:07:11;;;;;;;2.70;1.30;;;;;;;;;;10362581;28;20255;-72
2020/12/23 08:12:15;;;;;;;2.43;1.10;;;;;;;;;;10364443;28;20226;-71
2020/12/23 08:17:20;;;;;;;2.30;1.07;;;;;;;;;;10363180;28;20252;-70
2020/12/23 08:22:22;;;;;;;1.83;1.10;;;;;;;;;;10361330;28;20287;-71
2020/12/23 08:27:25;;;;;;;2.67;1.00;;;;;;;;;;10356282;28;20236;-70
2020/12/23 08:32:31;;;;;;;4.47;1.30;;;;;;;;;;10363699;28;20288;-70
2020/12/23 08:37:34;;;;;;;2.50;1.30;;;;;;;;;;10359705;28;20599;-71
2020/12/23 08:42:36;;;;;;;2.43;1.23;;;;;;;;;;10362427;28;20737;-70
2020/12/23 08:47:38;;;;;;;2.40;1.30;;;;;;;;;;10359419;28;20286;-69
2020/12/23 08:52:44;;;;;;;3.53;1.40;;;;;;;;;;10359066;28;20297;-71
2020/12/23 08:57:47;;;;;;;2.43;1.20;;;;;;;;;;10360549;28;20399;-72
2020/12/23 09:02:49;;;;;;;3.50;1.20;;;;;;;;;;10360486;28;20759;-71
2020/12/23 09:08:02;;;;;;;2.93;1.43;;;;;;;;;;10362086;28;20183;-72
2020/12/23 09:13:06;;;;;;;2.63;1.10;;;;;;;;;;10362793;28;20302;-71
2020/12/23 09:18:08;;;;;;;3.47;1.30;;;;;;;;;;10361382;28;20218;-71
2020/12/23 09:23:11;;;;;;;2.23;1.20;;;;;;;;;;10360019;28;20210;-71
2020/12/23 09:28:14;;;;;;;3.03;1.30;;;;;;;;;;10358361;28;20182;-70
2020/12/23 09:33:16;;;;;;;2.33;1.20;;;;;;;;;;10362717;28;20309;-70
2020/12/23 09:38:23;;;;;;;2.33;1.30;;;;;;;;;;10361555;28;20378;-71
2020/12/23 09:43:26;;;;;;;2.70;1.33;;;;;;;;;;10370227;28;20298;-70
2020/12/23 09:48:29;;;;;;;3.37;1.40;;;;;;;;;;10369023;28;20193;-70
2020/12/23 09:53:33;;;;;;;4.23;1.67;;;;;;;;;;10365793;28;20318;-71
2020/12/23 09:58:35;;;;;;;3.87;1.60;;;;;;;;;;10367013;28;20214;-70
2020/12/23 10:03:37;;;;;;;2.37;1.20;;;;;;;;;;10364308;28;20262;-72
2020/12/23 10:08:39;;;;;;;6.50;1.40;;;;;;;;;;10367751;28;20288;-71
2020/12/23 10:13:41;;;;;;;2.80;0.83;;;;;;;;;;10360205;28;20210;-71
2020/12/23 10:18:43;;;;;;;3.87;1.70;;;;;;;;;;10367865;28;20261;-71
2020/12/23 10:23:44;;;;;;;23.53;11.33;;;;;;;;;;10363886;28;20210;-71
2020/12/23 10:28:47;;;;;;;25.23;13.93;;;;;;;;;;10365166;28;20187;-71
2020/12/23 10:33:48;;;;;;;6.70;2.70;;;;;;;;;;10365547;28;20218;-72
2020/12/23 10:38:51;;;;;;;4.20;1.60;;;;;;;;;;10392604;28;20297;-71
2020/12/23 10:43:53;;;;;;;4.57;1.50;;;;;;;;;;10367550;28;20210;-72
2020/12/23 10:48:55;;;;;;;4.50;1.97;;;;;;;;;;10360493;28;20214;-72
2020/12/23 10:53:56;;;;;;;5.20;1.90;;;;;;;;;;10363645;28;20636;-71
2020/12/23 10:58:59;;;;;;;3.37;1.70;;;;;;;;;;10363107;28;20220;-70
2020/12/23 11:04:00;;;;;;;7.27;2.87;;;;;;;;;;10365138;28;20305;-70
2020/12/23 11:09:03;;;;;;;8.67;4.03;;;;;;;;;;10365844;28;20186;-70
2020/12/23 11:14:06;;;;;;;5.13;2.00;;;;;;;;;;10360733;28;20372;-70
2020/12/23 11:19:07;;;;;;;5.37;2.20;;;;;;;;;;10366166;28;20297;-70
2020/12/23 11:24:09;;;;;;;3.97;1.87;;;;;;;;;;10363549;28;20225;-71
2020/12/23 11:29:12;;;;;;;4.33;1.80;;;;;;;;;;10364947;28;20241;-71
2020/12/23 11:34:13;;;;;;;4.07;1.60;;;;;;;;;;10360703;28;20245;-71
2020/12/23 11:39:32;;;;;;;3.03;1.70;;;;;;;;;;10365866;28;20198;-72
2020/12/23 11:44:34;;;;;;;5.27;1.80;;;;;;;;;;10363616;28;20206;-69
2020/12/23 11:49:36;;;;;;;5.20;2.00;;;;;;;;;;10360243;28;20294;-69
2020/12/23 11:54:37;;;;;;;5.67;1.87;;;;;;;;;;10363720;28;20268;-71
2020/12/23 11:59:40;;;;;;;4.83;1.80;;;;;;;;;;10363566;28;20195;-70
2020/12/23 12:04:41;;;;;;;3.50;1.73;;;;;;;;;;10364343;28;20214;-71
2020/12/23 12:09:43;;;;;;;5.23;1.90;;;;;;;;;;10360092;28;20186;-70
2020/12/23 12:14:45;;;;;;;2.87;1.30;;;;;;;;;;10363845;28;20579;-72
2020/12/23 12:19:47;;;;;;;4.60;1.43;;;;;;;;;;10362206;28;20253;-72
2020/12/23 12:24:49;;;;;;;2.40;1.30;;;;;;;;;;10361207;28;20218;-72
2020/12/23 12:29:51;;;;;;;5.10;1.80;;;;;;;;;;10363473;28;20606;-72
2020/12/23 12:34:53;;;;;;;3.27;1.47;;;;;;;;;;10358386;28;20214;-71
2020/12/23 12:39:54;;;;;;;3.77;1.33;;;;;;;;;;10362594;28;20264;-71
2020/12/23 12:44:57;;;;;;;4.70;1.67;;;;;;;;;;10361791;28;20276;-68
2020/12/23 12:49:58;;;;;;;4.50;1.40;;;;;;;;;;10358253;28;20214;-72
2020/12/23 12:55:00;;;;;;;4.03;1.23;;;;;;;;;;10360825;28;20245;-70
2020/12/23 13:00:03;;;;;;;3.37;1.47;;;;;;;;;;10361862;28;20214;-71
2020/12/23 13:05:05;;;;;;;4.40;1.50;;;;;;;;;;10362872;28;20280;-72
2020/12/23 13:10:07;;;;;;;2.90;1.23;;;;;;;;;;10362398;28;20289;-70
2020/12/23 13:15:09;;;;;;;2.37;1.37;;;;;;;;;;10369003;28;20786;-71
2020/12/23 13:20:11;;;;;;;4.50;1.73;;;;;;;;;;10370949;28;20543;-71
2020/12/23 13:25:13;;;;;;;4.60;1.50;;;;;;;;;;10369106;28;20211;-70
2020/12/23 13:30:15;;;;;;;3.27;1.40;;;;;;;;;;10402456;28;20182;-71
2020/12/23 13:35:17;;;;;;;2.33;1.30;;;;;;;;;;10366676;28;20301;-70
2020/12/23 13:40:19;;;;;;;5.37;1.90;;;;;;;;;;10371335;28;20768;-72
2020/12/23 13:45:22;;;;;;;4.40;1.97;;;;;;;;;;10367753;28;20215;-71
2020/12/23 13:50:23;;;;;;;7.13;2.40;;;;;;;;;;10368303;28;20182;-70
2020/12/23 13:55:25;;;;;;;7.07;3.10;;;;;;;;;;10367315;28;20301;-70
2020/12/23 14:00:27;;;;;;;5.80;1.80;;;;;;;;;;10367185;28;20218;-71
2020/12/23 14:05:29;;;;;;;5.10;1.90;;;;;;;;;;10365307;28;20242;-71
2020/12/23 14:10:30;;;;;;;4.13;1.93;;;;;;;;;;10367350;28;20187;-72
2020/12/23 14:15:33;;;;;;;5.33;2.40;;;;;;;;;;10370141;28;20221;-70
2020/12/23 14:20:34;;;;;;;5.03;1.90;;;;;;;;;;10366173;28;20226;-72
2020/12/23 14:25:36;;;;;;;3.23;1.47;;;;;;;;;;10367933;28;20299;-71
2020/12/23 14:30:39;;;;;;;3.30;1.83;;;;;;;;;;10367558;28;20686;-71
2020/12/23 14:35:40;;;;;;;2.83;1.33;;;;;;;;;;10367455;28;20206;-71
2020/12/23 14:40:42;;;;;;;3.07;1.30;;;;;;;;;;10366624;28;20315;-71
2020/12/23 14:45:44;;;;;;;3.57;1.60;;;;;;;;;;10354525;28;20682;-71
2020/12/23 14:50:46;;;;;;;3.33;1.53;;;;;;;;;;10363074;28;20208;-71
2020/12/23 14:55:48;;;;;;;3.03;1.50;;;;;;;;;;10361701;28;20226;-69
2020/12/23 15:00:50;;;;;;;3.07;1.63;;;;;;;;;;10368549;28;20814;-71
2020/12/23 15:05:52;;;;;;;3.27;1.70;;;;;;;;;;10365058;28;20261;-71
2020/12/23 15:10:53;;;;;;;4.43;2.10;;;;;;;;;;10367562;28;20194;-71
2020/12/23 15:15:56;;;;;;;4.63;1.73;;;;;;;;;;10363914;28;20202;-72
2020/12/23 15:20:58;;;;;;;7.53;3.40;;;;;;;;;;10363988;28;20214;-71
2020/12/23 15:26:00;;;;;;;4.50;2.10;;;;;;;;;;10365957;28;20292;-70
2020/12/23 15:31:03;;;;;;;6.73;2.80;;;;;;;;;;10356822;28;20289;-71
2020/12/23 15:36:08;;;;;;;7.07;2.60;;;;;;;;;;10364921;28;20217;-70
2020/12/23 15:41:09;;;;;;;10.10;4.40;;;;;;;;;;10360730;28;20248;-71
2020/12/23 15:46:12;;;;;;;18.20;8.50;;;;;;;;;;10365099;28;20237;-71
2020/12/23 15:51:13;;;;;;;7.60;2.70;;;;;;;;;;10356518;28;20718;-71
2020/12/23 15:56:15;;;;;;;5.07;2.10;;;;;;;;;;10360077;28;20446;-71
2020/12/23 16:01:17;;;;;;;4.27;1.93;;;;;;;;;;10363134;28;20221;-68
2020/12/23 16:06:19;;;;;;;7.60;3.00;;;;;;;;;;10358616;28;20186;-71
2020/12/23 16:11:20;;;;;;;6.17;3.00;;;;;;;;;;10364368;28;20209;-71
2020/12/23 16:16:23;;;;;;;9.97;4.83;;;;;;;;;;10364702;28;20534;-71
2020/12/23 16:21:25;;;;;;;6.60;2.70;;;;;;;;;;10360623;28;20226;-68
2020/12/23 16:26:26;;;;;;;5.77;2.33;;;;;;;;;;10353937;28;20619;-71
2020/12/23 16:31:32;;;;;;;4.30;1.93;;;;;;;;;;10351971;28;20681;-69
2020/12/23 16:36:34;;;;;;;4.57;1.97;;;;;;;;;;10361911;28;20273;-70
2020/12/23 16:41:35;;;;;;;4.97;1.80;;;;;;;;;;10359564;28;20289;-71
2020/12/23 16:46:39;;;;;;;4.93;2.10;;;;;;;;;;10362524;28;20206;-71
2020/12/23 16:51:41;;;;;;;4.57;1.90;;;;;;;;;;10362678;28;20207;-72
2020/12/23 16:56:46;;;;;;;3.70;1.80;;;;;;;;;;10356594;28;20566;-71
2020/12/23 17:01:54;;;;;;;4.00;1.90;;;;;;;;;;10360610;28;20222;-73
2020/12/23 17:06:55;;;;;;;4.03;1.90;;;;;;;;;;10359213;28;20273;-68
2020/12/23 17:11:58;;;;;;;2.63;1.50;;;;;;;;;;10452028;28;20331;-70
2020/12/23 17:17:01;;;;;;;4.80;2.20;;;;;;;;;;10436945;28;20630;-71
2020/12/23 17:22:02;;;;;;;2.33;1.13;;;;;;;;;;10436424;28;20217;-71
2020/12/23 17:27:05;;;;;;;5.00;1.70;;;;;;;;;;10441006;28;20209;-71
2020/12/23 17:32:08;;;;;;;3.77;1.57;;;;;;;;;;10428663;28;20365;-71
2020/12/23 17:37:09;;;;;;;4.60;1.40;;;;;;;;;;10450189;28;20271;-71
2020/12/23 17:42:11;;;;;;;3.33;1.30;;;;;;;;;;10446606;28;20284;-70
2020/12/23 17:47:13;;;;;;;4.70;1.53;;;;;;;;;;10442511;28;20200;-70
2020/12/23 17:52:16;;;;;;;4.50;1.80;;;;;;;;;;10445279;28;20209;-71
2020/12/23 17:57:22;;;;;;;5.90;2.00;;;;;;;;;;10444732;28;20204;-71
2020/12/23 18:02:25;;;;;;;4.77;2.00;;;;;;;;;;10442219;28;20205;-72
2020/12/23 18:07:26;;;;;;;6.27;2.20;;;;;;;;;;10431945;28;20208;-72
2020/12/23 18:12:28;;;;;;;4.33;1.83;;;;;;;;;;10465123;28;20307;-70
2020/12/23 18:17:30;;;;;;;4.43;1.90;;;;;;;;;;10472249;28;20208;-70
2020/12/23 18:22:32;;;;;;;4.30;1.77;;;;;;;;;;10441860;28;20220;-71
2020/12/23 18:27:34;;;;;;;3.70;1.73;;;;;;;;;;10445403;28;20378;-70
2020/12/23 18:32:36;;;;;;;5.03;2.30;;;;;;;;;;10437605;28;20224;-70
2020/12/23 18:37:38;;;;;;;3.40;1.50;;;;;;;;;;10461624;28;20534;-71
2020/12/23 18:42:39;;;;;;;5.90;1.73;;;;;;;;;;10429704;28;20300;-71
2020/12/23 18:47:42;;;;;;;4.50;1.80;;;;;;;;;;10444531;28;20180;-71
2020/12/23 18:52:47;;;;;;;3.60;1.43;;;;;;;;;;10446277;28;20278;-70
2020/12/23 18:57:49;;;;;;;3.10;1.40;;;;;;;;;;10440683;28;20210;-70
2020/12/23 19:02:52;;;;;;;3.17;1.40;;;;;;;;;;10428073;28;20219;-71
2020/12/23 19:07:56;;;;;;;3.17;1.30;;;;;;;;;;10452702;28;20255;-70
2020/12/23 19:12:57;;;;;;;3.90;1.63;;;;;;;;;;10432882;28;20226;-69
2020/12/23 19:18:00;;;;;;;2.87;1.40;;;;;;;;;;10449428;28;20305;-71
2020/12/23 19:23:01;;;;;;;2.40;1.30;;;;;;;;;;10436938;28;20635;-69
2020/12/23 19:28:03;;;;;;;3.77;1.40;;;;;;;;;;10431931;28;20279;-70
2020/12/23 19:33:06;;;;;;;3.20;1.33;;;;;;;;;;10455184;28;20287;-70
2020/12/23 19:38:10;;;;;;;2.17;1.30;;;;;;;;;;10453011;28;20206;-71
2020/12/23 19:43:14;;;;;;;3.50;1.53;;;;;;;;;;10438184;28;20204;-70
2020/12/23 19:48:16;;;;;;;3.63;1.50;;;;;;;;;;10411747;28;20208;-71
2020/12/23 19:53:18;;;;;;;4.93;1.80;;;;;;;;;;10434753;28;20208;-69
2020/12/23 19:58:19;;;;;;;4.07;1.93;;;;;;;;;;10421818;28;20239;-69
2020/12/23 20:03:22;;;;;;;5.10;2.20;;;;;;;;;;10443444;28;20300;-71
2020/12/23 20:08:23;;;;;;;5.40;1.90;;;;;;;;;;10457049;28;20671;-71
2020/12/23 20:13:25;;;;;;;4.23;2.00;;;;;;;;;;10438935;28;20204;-71
2020/12/23 20:18:27;;;;;;;4.87;2.00;;;;;;;;;;10441361;28;20244;-70
2020/12/23 20:23:29;;;;;;;6.03;2.13;;;;;;;;;;10441580;28;20231;-69
2020/12/23 20:28:30;;;;;;;4.93;2.50;;;;;;;;;;10411894;28;20200;-69
2020/12/23 20:33:33;;;;;;;5.07;1.77;;;;;;;;;;10445478;28;20223;-70
2020/12/23 20:38:48;;;;;;;5.37;2.00;;;;;;;;;;10462452;28;20230;-71
2020/12/23 20:43:49;;;;;;;4.17;1.90;;;;;;;;;;10458903;28;20227;-71
2020/12/23 20:48:52;;;;;;;3.63;1.87;;;;;;;;;;10422665;28;20193;-68
2020/12/23 20:53:54;;;;;;;5.57;2.10;;;;;;;;;;10454524;28;20572;-70
2020/12/23 20:58:56;;;;;;;4.83;1.90;;;;;;;;;;10441418;28;20557;-70
2020/12/23 21:03:58;;;;;;;4.67;2.00;;;;;;;;;;10428601;28;20608;-71
2020/12/23 21:09:00;;;;;;;3.63;1.70;;;;;;;;;;10427100;28;20276;-71
2020/12/23 21:14:02;;;;;;;4.00;1.60;;;;;;;;;;10424497;28;20524;-72
2020/12/23 21:19:04;;;;;;;4.30;1.60;;;;;;;;;;10432022;28;20207;-71
2020/12/23 21:24:06;;;;;;;3.77;1.53;;;;;;;;;;10430668;28;20212;-72
2020/12/23 21:29:08;;;;;;;2.50;1.30;;;;;;;;;;10441356;28;20184;-70
2020/12/23 21:34:11;;;;;;;3.50;1.33;;;;;;;;;;10431477;28;20297;-71
2020/12/23 21:39:13;;;;;;;2.53;1.30;;;;;;;;;;10468008;28;20219;-72
2020/12/23 21:44:15;;;;;;;1.87;1.13;;;;;;;;;;10449550;28;20247;-71
2020/12/23 21:49:22;;;;;;;1.77;1.00;;;;;;;;;;10458826;28;20217;-71
2020/12/23 21:54:23;;;;;;;2.27;1.20;;;;;;;;;;10451063;28;20233;-71
2020/12/23 21:59:26;;;;;;;3.00;1.23;;;;;;;;;;10445458;28;20215;-71
2020/12/23 22:04:28;;;;;;;1.67;1.00;;;;;;;;;;10467327;28;20208;-72
2020/12/23 22:09:30;;;;;;;0.97;0.80;;;;;;;;;;10441200;28;20186;-70
2020/12/23 22:14:31;;;;;;;2.60;1.37;;;;;;;;;;10469468;28;20216;-69
2020/12/23 22:19:36;;;;;;;1.73;1.13;;;;;;;;;;10439502;28;20310;-70
2020/12/23 22:24:38;;;;;;;2.77;1.53;;;;;;;;;;10454695;28;20713;-68
2020/12/23 22:29:39;;;;;;;2.13;1.30;;;;;;;;;;10424855;28;20209;-71
2020/12/23 22:34:42;;;;;;;2.10;1.20;;;;;;;;;;10416561;28;20208;-72
2020/12/23 22:39:44;;;;;;;1.50;0.70;;;;;;;;;;10460778;28;20232;-71
2020/12/23 22:44:46;;;;;;;2.17;1.20;;;;;;;;;;10438485;28;20208;-70
2020/12/23 22:49:54;;;;;;;2.73;1.47;;;;;;;;;;10445754;28;20427;-72
2020/12/23 22:54:56;;;;;;;2.20;1.33;;;;;;;;;;10444943;28;20241;-70
2020/12/23 22:59:58;;;;;;;1.97;1.40;;;;;;;;;;10462940;28;20227;-72
2020/12/23 23:05:00;;;;;;;2.63;1.50;;;;;;;;;;10439100;28;20213;-70
2020/12/23 23:10:04;;;;;;;3.17;1.57;;;;;;;;;;10421142;28;20200;-71
2020/12/23 23:15:06;;;;;;;3.93;1.83;;;;;;;;;;10437740;28;20237;-71
2020/12/23 23:20:15;;;;;;;2.27;1.30;;;;;;;;;;10445260;28;20259;-72
2020/12/23 23:25:17;;;;;;;2.20;1.20;;;;;;;;;;10444992;28;20529;-72
2020/12/23 23:30:20;;;;;;;2.63;1.30;;;;;;;;;;10428132;28;20199;-70
2020/12/23 23:35:23;;;;;;;2.60;1.23;;;;;;;;;;10416746;28;20232;-71
2020/12/23 23:40:25;;;;;;;3.00;1.50;;;;;;;;;;10451891;28;20272;-71
2020/12/23 23:45:26;;;;;;;1.70;1.10;;;;;;;;;;10464932;28;20307;-71
2020/12/23 23:50:35;;;;;;;1.67;1.10;;;;;;;;;;10458415;28;20246;-71
2020/12/23 23:55:36;;;;;;;1.50;0.90;;;;;;;;;;10435604;28;20209;-72
